sensor_id;sensor_type;location;lat;lon;timestamp;P1;durP1;ratioP1;P2;durP2;ratioP2
54575;SDS011;40472;53.486;14.542;2023-03-11T00:02:10;26.80;;;14.60;;
54575;SDS011;40472;53.486;14.542;2023-03-11T00:04:36;15.65;;;8.45;;
54575;SDS011;40472;53.486;14.542;2023-03-11T00:07:04;22.10;;;12.15;;
54575;SDS011;40472;53.486;14.542;2023-03-11T00:09:31;27.70;;;12.77;;
54575;SDS011;40472;53.486;14.542;2023-03-11T00:11:56;46.90;;;21.10;;
54575;SDS011;40472;53.486;14.542;2023-03-11T00:14:22;18.55;;;10.48;;
54575;SDS011;40472;53.486;14.542;2023-03-11T00:16:48;32.47;;;15.20;;
54575;SDS011;40472;53.486;14.542;2023-03-11T00:19:14;26.77;;;12.93;;
54575;SDS011;40472;53.486;14.542;2023-03-11T00:21:40;10.80;;;5.72;;
54575;SDS011;40472;53.486;14.542;2023-03-11T00:24:06;29.30;;;14.27;;
54575;SDS011;40472;53.486;14.542;2023-03-11T00:26:32;58.83;;;26.90;;
54575;SDS011;40472;53.486;14.542;2023-03-11T00:29:00;44.00;;;19.25;;
54575;SDS011;40472;53.486;14.542;2023-03-11T00:31:26;45.05;;;20.58;;
54575;SDS011;40472;53.486;14.542;2023-03-11T00:33:52;30.10;;;16.73;;
54575;SDS011;40472;53.486;14.542;2023-03-11T00:36:28;28.27;;;12.63;;
54575;SDS011;40472;53.486;14.542;2023-03-11T00:38:56;11.65;;;6.63;;
54575;SDS011;40472;53.486;14.542;2023-03-11T00:41:23;29.77;;;14.00;;
54575;SDS011;40472;53.486;14.542;2023-03-11T00:43:49;26.77;;;14.00;;
54575;SDS011;40472;53.486;14.542;2023-03-11T00:46:18;24.83;;;10.43;;
54575;SDS011;40472;53.486;14.542;2023-03-11T00:48:44;19.73;;;10.23;;
54575;SDS011;40472;53.486;14.542;2023-03-11T00:51:13;19.33;;;11.63;;
54575;SDS011;40472;53.486;14.542;2023-03-11T00:53:40;9.48;;;6.43;;
54575;SDS011;40472;53.486;14.542;2023-03-11T00:56:10;12.68;;;6.90;;
54575;SDS011;40472;53.486;14.542;2023-03-11T00:58:37;15.25;;;9.30;;
54575;SDS011;40472;53.486;14.542;2023-03-11T01:01:07;25.58;;;12.98;;
54575;SDS011;40472;53.486;14.542;2023-03-11T01:03:34;28.65;;;14.55;;
54575;SDS011;40472;53.486;14.542;2023-03-11T01:06:00;24.27;;;13.15;;
54575;SDS011;40472;53.486;14.542;2023-03-11T01:08:26;26.40;;;14.20;;
54575;SDS011;40472;53.486;14.542;2023-03-11T01:10:53;27.15;;;13.85;;
54575;SDS011;40472;53.486;14.542;2023-03-11T01:13:21;10.60;;;5.88;;
54575;SDS011;40472;53.486;14.542;2023-03-11T01:15:47;22.75;;;11.80;;
54575;SDS011;40472;53.486;14.542;2023-03-11T01:18:13;27.38;;;13.75;;
54575;SDS011;40472;53.486;14.542;2023-03-11T01:20:40;18.08;;;10.40;;
54575;SDS011;40472;53.486;14.542;2023-03-11T01:23:06;16.15;;;8.38;;
54575;SDS011;40472;53.486;14.542;2023-03-11T01:25:33;15.43;;;10.88;;
54575;SDS011;40472;53.486;14.542;2023-03-11T01:27:59;24.42;;;9.00;;
54575;SDS011;40472;53.486;14.542;2023-03-11T01:30:26;17.70;;;7.32;;
54575;SDS011;40472;53.486;14.542;2023-03-11T01:32:53;18.50;;;9.95;;
54575;SDS011;40472;53.486;14.542;2023-03-11T01:35:20;20.42;;;10.73;;
54575;SDS011;40472;53.486;14.542;2023-03-11T01:37:47;19.58;;;10.52;;
54575;SDS011;40472;53.486;14.542;2023-03-11T01:40:15;16.05;;;7.80;;
54575;SDS011;40472;53.486;14.542;2023-03-11T01:42:44;21.10;;;9.77;;
54575;SDS011;40472;53.486;14.542;2023-03-11T01:45:33;24.52;;;12.10;;
54575;SDS011;40472;53.486;14.542;2023-03-11T01:48:02;23.83;;;12.70;;
54575;SDS011;40472;53.486;14.542;2023-03-11T01:50:31;22.38;;;8.65;;
54575;SDS011;40472;53.486;14.542;2023-03-11T01:53:01;17.08;;;8.95;;
54575;SDS011;40472;53.486;14.542;2023-03-11T01:55:28;13.20;;;8.13;;
54575;SDS011;40472;53.486;14.542;2023-03-11T01:57:56;28.52;;;11.63;;
54575;SDS011;40472;53.486;14.542;2023-03-11T02:00:23;21.25;;;10.95;;
54575;SDS011;40472;53.486;14.542;2023-03-11T02:02:53;54.45;;;20.75;;
54575;SDS011;40472;53.486;14.542;2023-03-11T02:05:22;91.82;;;30.40;;
54575;SDS011;40472;53.486;14.542;2023-03-11T02:07:49;77.00;;;29.50;;
54575;SDS011;40472;53.486;14.542;2023-03-11T02:10:16;62.78;;;22.35;;
54575;SDS011;40472;53.486;14.542;2023-03-11T02:12:43;46.45;;;18.73;;
54575;SDS011;40472;53.486;14.542;2023-03-11T02:15:10;27.08;;;14.27;;
54575;SDS011;40472;53.486;14.542;2023-03-11T02:17:39;27.75;;;10.80;;
54575;SDS011;40472;53.486;14.542;2023-03-11T02:22:33;16.85;;;7.43;;
54575;SDS011;40472;53.486;14.542;2023-03-11T02:27:32;11.30;;;6.20;;
54575;SDS011;40472;53.486;14.542;2023-03-11T02:30:00;12.68;;;6.82;;
54575;SDS011;40472;53.486;14.542;2023-03-11T02:32:27;16.65;;;7.88;;
54575;SDS011;40472;53.486;14.542;2023-03-11T02:34:53;11.27;;;7.38;;
54575;SDS011;40472;53.486;14.542;2023-03-11T02:37:19;11.15;;;6.80;;
54575;SDS011;40472;53.486;14.542;2023-03-11T02:39:46;11.70;;;6.68;;
54575;SDS011;40472;53.486;14.542;2023-03-11T02:42:17;17.15;;;10.10;;
54575;SDS011;40472;53.486;14.542;2023-03-11T02:47:32;5.05;;;3.30;;
54575;SDS011;40472;53.486;14.542;2023-03-11T02:50:00;5.43;;;4.03;;
54575;SDS011;40472;53.486;14.542;2023-03-11T02:52:30;3.10;;;2.22;;
54575;SDS011;40472;53.486;14.542;2023-03-11T02:55:00;8.25;;;5.20;;
54575;SDS011;40472;53.486;14.542;2023-03-11T02:57:26;5.97;;;4.20;;
54575;SDS011;40472;53.486;14.542;2023-03-11T02:59:52;11.48;;;7.70;;
54575;SDS011;40472;53.486;14.542;2023-03-11T03:02:18;8.65;;;4.45;;
54575;SDS011;40472;53.486;14.542;2023-03-11T03:04:44;8.63;;;5.05;;
54575;SDS011;40472;53.486;14.542;2023-03-11T03:07:10;3.75;;;2.67;;
54575;SDS011;40472;53.486;14.542;2023-03-11T03:09:36;4.05;;;2.78;;
54575;SDS011;40472;53.486;14.542;2023-03-11T03:12:03;3.88;;;2.50;;
54575;SDS011;40472;53.486;14.542;2023-03-11T03:14:29;6.85;;;4.10;;
54575;SDS011;40472;53.486;14.542;2023-03-11T03:16:55;7.68;;;3.97;;
54575;SDS011;40472;53.486;14.542;2023-03-11T03:19:21;10.13;;;4.90;;
54575;SDS011;40472;53.486;14.542;2023-03-11T03:21:47;5.57;;;2.83;;
54575;SDS011;40472;53.486;14.542;2023-03-11T03:24:13;3.83;;;2.47;;
54575;SDS011;40472;53.486;14.542;2023-03-11T03:26:39;3.33;;;2.35;;
54575;SDS011;40472;53.486;14.542;2023-03-11T03:29:05;14.50;;;8.52;;
54575;SDS011;40472;53.486;14.542;2023-03-11T03:31:31;8.88;;;5.25;;
54575;SDS011;40472;53.486;14.542;2023-03-11T03:33:58;13.15;;;7.15;;
54575;SDS011;40472;53.486;14.542;2023-03-11T03:36:23;7.28;;;4.50;;
54575;SDS011;40472;53.486;14.542;2023-03-11T03:38:54;13.20;;;7.15;;
54575;SDS011;40472;53.486;14.542;2023-03-11T03:41:22;9.63;;;6.22;;
54575;SDS011;40472;53.486;14.542;2023-03-11T03:43:51;11.60;;;5.57;;
54575;SDS011;40472;53.486;14.542;2023-03-11T03:46:18;5.20;;;3.60;;
54575;SDS011;40472;53.486;14.542;2023-03-11T03:48:44;9.63;;;6.35;;
54575;SDS011;40472;53.486;14.542;2023-03-11T03:51:11;12.85;;;4.75;;
54575;SDS011;40472;53.486;14.542;2023-03-11T03:53:37;4.35;;;3.50;;
54575;SDS011;40472;53.486;14.542;2023-03-11T03:56:09;5.45;;;3.47;;
54575;SDS011;40472;53.486;14.542;2023-03-11T03:58:37;4.88;;;2.58;;
54575;SDS011;40472;53.486;14.542;2023-03-11T04:01:04;4.78;;;2.83;;
54575;SDS011;40472;53.486;14.542;2023-03-11T04:03:31;5.70;;;3.05;;
54575;SDS011;40472;53.486;14.542;2023-03-11T04:06:15;5.43;;;3.20;;
54575;SDS011;40472;53.486;14.542;2023-03-11T04:08:43;6.38;;;3.60;;
54575;SDS011;40472;53.486;14.542;2023-03-11T04:11:09;10.35;;;4.97;;
54575;SDS011;40472;53.486;14.542;2023-03-11T04:13:38;2.92;;;2.00;;
54575;SDS011;40472;53.486;14.542;2023-03-11T04:16:05;5.25;;;3.28;;
54575;SDS011;40472;53.486;14.542;2023-03-11T04:18:32;7.63;;;2.97;;
54575;SDS011;40472;53.486;14.542;2023-03-11T04:20:58;9.93;;;4.07;;
54575;SDS011;40472;53.486;14.542;2023-03-11T04:23:23;7.43;;;3.35;;
54575;SDS011;40472;53.486;14.542;2023-03-11T04:25:49;4.82;;;2.85;;
54575;SDS011;40472;53.486;14.542;2023-03-11T04:28:15;6.40;;;3.45;;
54575;SDS011;40472;53.486;14.542;2023-03-11T04:30:41;4.25;;;2.30;;
54575;SDS011;40472;53.486;14.542;2023-03-11T04:33:07;6.28;;;3.30;;
54575;SDS011;40472;53.486;14.542;2023-03-11T04:35:36;8.73;;;3.00;;
54575;SDS011;40472;53.486;14.542;2023-03-11T04:38:03;1.98;;;1.23;;
54575;SDS011;40472;53.486;14.542;2023-03-11T04:40:29;5.65;;;3.38;;
54575;SDS011;40472;53.486;14.542;2023-03-11T04:42:57;1.95;;;1.23;;
54575;SDS011;40472;53.486;14.542;2023-03-11T04:45:23;4.78;;;2.33;;
54575;SDS011;40472;53.486;14.542;2023-03-11T04:47:49;6.22;;;2.05;;
54575;SDS011;40472;53.486;14.542;2023-03-11T04:50:16;2.08;;;1.52;;
54575;SDS011;40472;53.486;14.542;2023-03-11T04:52:42;4.72;;;2.42;;
54575;SDS011;40472;53.486;14.542;2023-03-11T04:55:08;2.67;;;1.85;;
54575;SDS011;40472;53.486;14.542;2023-03-11T04:57:38;5.85;;;3.83;;
54575;SDS011;40472;53.486;14.542;2023-03-11T05:00:07;4.18;;;2.33;;
54575;SDS011;40472;53.486;14.542;2023-03-11T05:02:35;5.70;;;3.63;;
54575;SDS011;40472;53.486;14.542;2023-03-11T05:05:02;4.82;;;1.95;;
54575;SDS011;40472;53.486;14.542;2023-03-11T05:07:31;5.82;;;2.10;;
54575;SDS011;40472;53.486;14.542;2023-03-11T05:09:57;3.53;;;1.88;;
54575;SDS011;40472;53.486;14.542;2023-03-11T05:12:22;6.47;;;2.63;;
54575;SDS011;40472;53.486;14.542;2023-03-11T05:14:50;4.38;;;2.17;;
54575;SDS011;40472;53.486;14.542;2023-03-11T05:17:16;3.38;;;1.95;;
54575;SDS011;40472;53.486;14.542;2023-03-11T05:19:43;6.50;;;1.60;;
54575;SDS011;40472;53.486;14.542;2023-03-11T05:22:09;8.73;;;3.70;;
54575;SDS011;40472;53.486;14.542;2023-03-11T05:24:35;3.35;;;1.70;;
54575;SDS011;40472;53.486;14.542;2023-03-11T05:27:01;3.47;;;1.73;;
54575;SDS011;40472;53.486;14.542;2023-03-11T05:29:27;1.38;;;1.27;;
54575;SDS011;40472;53.486;14.542;2023-03-11T05:31:53;4.38;;;1.48;;
54575;SDS011;40472;53.486;14.542;2023-03-11T05:34:21;2.78;;;1.52;;
54575;SDS011;40472;53.486;14.542;2023-03-11T05:36:47;3.50;;;2.10;;
54575;SDS011;40472;53.486;14.542;2023-03-11T05:39:13;7.65;;;2.50;;
54575;SDS011;40472;53.486;14.542;2023-03-11T05:41:39;1.95;;;1.02;;
54575;SDS011;40472;53.486;14.542;2023-03-11T05:44:05;4.85;;;1.38;;
54575;SDS011;40472;53.486;14.542;2023-03-11T05:46:31;3.53;;;1.90;;
54575;SDS011;40472;53.486;14.542;2023-03-11T05:48:59;2.70;;;1.58;;
54575;SDS011;40472;53.486;14.542;2023-03-11T05:51:25;3.00;;;1.73;;
54575;SDS011;40472;53.486;14.542;2023-03-11T05:53:51;4.05;;;2.15;;
54575;SDS011;40472;53.486;14.542;2023-03-11T05:56:18;7.07;;;3.38;;
54575;SDS011;40472;53.486;14.542;2023-03-11T05:58:45;0.75;;;0.75;;
54575;SDS011;40472;53.486;14.542;2023-03-11T06:01:12;6.75;;;2.10;;
54575;SDS011;40472;53.486;14.542;2023-03-11T06:03:40;6.18;;;1.50;;
54575;SDS011;40472;53.486;14.542;2023-03-11T06:06:07;2.78;;;1.63;;
54575;SDS011;40472;53.486;14.542;2023-03-11T06:08:34;3.30;;;1.63;;
54575;SDS011;40472;53.486;14.542;2023-03-11T06:11:01;5.00;;;2.33;;
54575;SDS011;40472;53.486;14.542;2023-03-11T06:13:28;2.38;;;1.58;;
54575;SDS011;40472;53.486;14.542;2023-03-11T06:15:54;5.72;;;1.73;;
54575;SDS011;40472;53.486;14.542;2023-03-11T06:18:20;2.65;;;2.25;;
54575;SDS011;40472;53.486;14.542;2023-03-11T06:20:48;5.45;;;2.42;;
54575;SDS011;40472;53.486;14.542;2023-03-11T06:23:14;5.15;;;1.95;;
54575;SDS011;40472;53.486;14.542;2023-03-11T06:25:39;4.72;;;2.10;;
54575;SDS011;40472;53.486;14.542;2023-03-11T06:28:07;3.80;;;2.25;;
54575;SDS011;40472;53.486;14.542;2023-03-11T06:30:36;8.10;;;1.48;;
54575;SDS011;40472;53.486;14.542;2023-03-11T06:33:02;3.03;;;1.98;;
54575;SDS011;40472;53.486;14.542;2023-03-11T06:35:27;1.45;;;1.05;;
54575;SDS011;40472;53.486;14.542;2023-03-11T06:37:53;2.95;;;1.70;;
54575;SDS011;40472;53.486;14.542;2023-03-11T06:40:19;5.78;;;2.30;;
54575;SDS011;40472;53.486;14.542;2023-03-11T06:42:45;2.85;;;2.20;;
54575;SDS011;40472;53.486;14.542;2023-03-11T06:45:11;5.38;;;2.08;;
54575;SDS011;40472;53.486;14.542;2023-03-11T06:47:37;5.53;;;2.45;;
54575;SDS011;40472;53.486;14.542;2023-03-11T06:50:03;5.65;;;2.35;;
54575;SDS011;40472;53.486;14.542;2023-03-11T06:52:31;2.05;;;1.52;;
54575;SDS011;40472;53.486;14.542;2023-03-11T06:54:57;4.78;;;2.97;;
54575;SDS011;40472;53.486;14.542;2023-03-11T06:57:23;3.85;;;2.30;;
54575;SDS011;40472;53.486;14.542;2023-03-11T06:59:48;3.30;;;1.88;;
54575;SDS011;40472;53.486;14.542;2023-03-11T07:02:14;4.55;;;2.25;;
54575;SDS011;40472;53.486;14.542;2023-03-11T07:04:40;9.35;;;2.45;;
54575;SDS011;40472;53.486;14.542;2023-03-11T07:07:06;4.20;;;2.33;;
54575;SDS011;40472;53.486;14.542;2023-03-11T07:09:32;7.15;;;1.83;;
54575;SDS011;40472;53.486;14.542;2023-03-11T07:12:00;3.70;;;2.20;;
54575;SDS011;40472;53.486;14.542;2023-03-11T07:14:26;3.67;;;2.05;;
54575;SDS011;40472;53.486;14.542;2023-03-11T07:16:51;12.68;;;3.20;;
54575;SDS011;40472;53.486;14.542;2023-03-11T07:19:17;4.75;;;2.88;;
54575;SDS011;40472;53.486;14.542;2023-03-11T07:21:43;7.40;;;2.63;;
54575;SDS011;40472;53.486;14.542;2023-03-11T07:24:10;6.13;;;3.45;;
54575;SDS011;40472;53.486;14.542;2023-03-11T07:26:37;2.67;;;1.60;;
54575;SDS011;40472;53.486;14.542;2023-03-11T07:29:03;6.10;;;3.65;;
54575;SDS011;40472;53.486;14.542;2023-03-11T07:31:30;5.22;;;3.03;;
54575;SDS011;40472;53.486;14.542;2023-03-11T07:33:58;4.55;;;1.58;;
54575;SDS011;40472;53.486;14.542;2023-03-11T07:36:26;3.70;;;2.10;;
54575;SDS011;40472;53.486;14.542;2023-03-11T07:38:56;2.35;;;1.95;;
54575;SDS011;40472;53.486;14.542;2023-03-11T07:41:24;6.13;;;2.80;;
54575;SDS011;40472;53.486;14.542;2023-03-11T07:43:54;5.63;;;2.08;;
54575;SDS011;40472;53.486;14.542;2023-03-11T07:46:22;6.53;;;2.80;;
54575;SDS011;40472;53.486;14.542;2023-03-11T07:48:49;5.97;;;2.95;;
54575;SDS011;40472;53.486;14.542;2023-03-11T07:51:17;3.88;;;2.58;;
54575;SDS011;40472;53.486;14.542;2023-03-11T07:53:45;3.35;;;2.10;;
54575;SDS011;40472;53.486;14.542;2023-03-11T07:56:11;2.70;;;2.15;;
54575;SDS011;40472;53.486;14.542;2023-03-11T07:58:40;4.32;;;2.10;;
54575;SDS011;40472;53.486;14.542;2023-03-11T08:01:07;9.27;;;2.85;;
54575;SDS011;40472;53.486;14.542;2023-03-11T08:03:34;4.60;;;2.45;;
54575;SDS011;40472;53.486;14.542;2023-03-11T08:06:01;5.13;;;1.95;;
54575;SDS011;40472;53.486;14.542;2023-03-11T08:08:27;8.25;;;2.30;;
54575;SDS011;40472;53.486;14.542;2023-03-11T08:10:52;5.38;;;2.22;;
54575;SDS011;40472;53.486;14.542;2023-03-11T08:13:19;8.65;;;2.30;;
54575;SDS011;40472;53.486;14.542;2023-03-11T08:15:45;3.58;;;2.28;;
54575;SDS011;40472;53.486;14.542;2023-03-11T08:18:10;2.60;;;1.70;;
54575;SDS011;40472;53.486;14.542;2023-03-11T08:20:37;4.43;;;1.75;;
54575;SDS011;40472;53.486;14.542;2023-03-11T08:23:04;3.20;;;2.10;;
54575;SDS011;40472;53.486;14.542;2023-03-11T08:25:31;2.72;;;1.58;;
54575;SDS011;40472;53.486;14.542;2023-03-11T08:27:59;5.00;;;2.13;;
54575;SDS011;40472;53.486;14.542;2023-03-11T08:30:25;4.10;;;1.80;;
54575;SDS011;40472;53.486;14.542;2023-03-11T08:32:50;5.18;;;2.28;;
54575;SDS011;40472;53.486;14.542;2023-03-11T08:35:18;3.22;;;1.85;;
54575;SDS011;40472;53.486;14.542;2023-03-11T08:37:45;4.40;;;1.90;;
54575;SDS011;40472;53.486;14.542;2023-03-11T08:40:11;3.80;;;1.45;;
54575;SDS011;40472;53.486;14.542;2023-03-11T08:42:38;3.78;;;1.67;;
54575;SDS011;40472;53.486;14.542;2023-03-11T08:45:04;4.20;;;1.70;;
54575;SDS011;40472;53.486;14.542;2023-03-11T08:47:34;4.60;;;1.77;;
54575;SDS011;40472;53.486;14.542;2023-03-11T08:50:04;4.13;;;2.30;;
54575;SDS011;40472;53.486;14.542;2023-03-11T08:52:33;5.90;;;2.05;;
54575;SDS011;40472;53.486;14.542;2023-03-11T08:54:59;4.45;;;1.27;;
54575;SDS011;40472;53.486;14.542;2023-03-11T08:57:25;3.03;;;1.92;;
54575;SDS011;40472;53.486;14.542;2023-03-11T08:59:51;6.68;;;2.20;;
54575;SDS011;40472;53.486;14.542;2023-03-11T09:02:18;6.95;;;2.22;;
54575;SDS011;40472;53.486;14.542;2023-03-11T09:04:44;3.45;;;1.80;;
54575;SDS011;40472;53.486;14.542;2023-03-11T09:07:10;2.50;;;1.45;;
54575;SDS011;40472;53.486;14.542;2023-03-11T09:09:41;2.45;;;1.30;;
54575;SDS011;40472;53.486;14.542;2023-03-11T09:12:08;5.55;;;2.28;;
54575;SDS011;40472;53.486;14.542;2023-03-11T09:14:38;4.72;;;1.80;;
54575;SDS011;40472;53.486;14.542;2023-03-11T09:17:06;4.32;;;1.92;;
54575;SDS011;40472;53.486;14.542;2023-03-11T09:19:34;4.38;;;2.55;;
54575;SDS011;40472;53.486;14.542;2023-03-11T09:22:05;2.15;;;1.55;;
54575;SDS011;40472;53.486;14.542;2023-03-11T09:24:35;8.82;;;2.33;;
54575;SDS011;40472;53.486;14.542;2023-03-11T09:27:01;3.38;;;1.88;;
54575;SDS011;40472;53.486;14.542;2023-03-11T09:29:28;2.25;;;1.10;;
54575;SDS011;40472;53.486;14.542;2023-03-11T09:31:54;1.77;;;1.25;;
54575;SDS011;40472;53.486;14.542;2023-03-11T09:34:23;4.38;;;1.52;;
54575;SDS011;40472;53.486;14.542;2023-03-11T09:36:49;6.55;;;2.00;;
54575;SDS011;40472;53.486;14.542;2023-03-11T09:39:15;2.28;;;1.02;;
54575;SDS011;40472;53.486;14.542;2023-03-11T09:41:44;3.25;;;1.95;;
54575;SDS011;40472;53.486;14.542;2023-03-11T09:44:21;1.40;;;1.23;;
54575;SDS011;40472;53.486;14.542;2023-03-11T09:52:43;2.45;;;2.03;;
54575;SDS011;40472;53.486;14.542;2023-03-11T09:55:20;1.08;;;0.90;;
54575;SDS011;40472;53.486;14.542;2023-03-11T09:57:49;2.58;;;1.42;;
54575;SDS011;40472;53.486;14.542;2023-03-11T10:00:18;2.55;;;1.48;;
54575;SDS011;40472;53.486;14.542;2023-03-11T10:02:47;5.18;;;1.45;;
54575;SDS011;40472;53.486;14.542;2023-03-11T10:07:50;5.00;;;1.60;;
54575;SDS011;40472;53.486;14.542;2023-03-11T10:10:29;2.35;;;1.58;;
54575;SDS011;40472;53.486;14.542;2023-03-11T10:21:15;1.70;;;0.88;;
54575;SDS011;40472;53.486;14.542;2023-03-11T10:27:12;4.78;;;1.33;;
54575;SDS011;40472;53.486;14.542;2023-03-11T10:34:46;4.53;;;1.55;;
54575;SDS011;40472;53.486;14.542;2023-03-11T10:37:23;4.78;;;1.60;;
54575;SDS011;40472;53.486;14.542;2023-03-11T10:42:55;1.70;;;1.02;;
54575;SDS011;40472;53.486;14.542;2023-03-11T10:45:23;0.85;;;0.65;;
54575;SDS011;40472;53.486;14.542;2023-03-11T10:47:51;1.73;;;1.20;;
54575;SDS011;40472;53.486;14.542;2023-03-11T10:50:17;3.10;;;1.40;;
54575;SDS011;40472;53.486;14.542;2023-03-11T10:53:07;3.50;;;1.08;;
54575;SDS011;40472;53.486;14.542;2023-03-11T10:55:48;2.85;;;1.40;;
54575;SDS011;40472;53.486;14.542;2023-03-11T10:58:17;2.65;;;1.00;;
54575;SDS011;40472;53.486;14.542;2023-03-11T11:00:45;1.17;;;1.08;;
54575;SDS011;40472;53.486;14.542;2023-03-11T11:03:46;1.27;;;1.00;;
54575;SDS011;40472;53.486;14.542;2023-03-11T11:06:33;1.58;;;1.20;;
54575;SDS011;40472;53.486;14.542;2023-03-11T11:09:19;3.65;;;1.60;;
54575;SDS011;40472;53.486;14.542;2023-03-11T11:17:21;1.70;;;1.38;;
54575;SDS011;40472;53.486;14.542;2023-03-11T11:19:48;0.98;;;0.80;;
54575;SDS011;40472;53.486;14.542;2023-03-11T11:22:17;2.05;;;1.33;;
54575;SDS011;40472;53.486;14.542;2023-03-11T11:24:46;7.60;;;2.20;;
54575;SDS011;40472;53.486;14.542;2023-03-11T11:27:16;3.05;;;2.05;;
54575;SDS011;40472;53.486;14.542;2023-03-11T11:29:46;6.90;;;1.95;;
54575;SDS011;40472;53.486;14.542;2023-03-11T11:32:26;2.47;;;1.65;;
54575;SDS011;40472;53.486;14.542;2023-03-11T11:37:26;3.38;;;2.30;;
54575;SDS011;40472;53.486;14.542;2023-03-11T11:40:00;4.60;;;1.77;;
54575;SDS011;40472;53.486;14.542;2023-03-11T11:45:18;2.00;;;1.48;;
54575;SDS011;40472;53.486;14.542;2023-03-11T11:48:21;2.00;;;1.30;;
54575;SDS011;40472;53.486;14.542;2023-03-11T11:50:55;3.78;;;2.00;;
54575;SDS011;40472;53.486;14.542;2023-03-11T11:56:00;5.82;;;2.72;;
54575;SDS011;40472;53.486;14.542;2023-03-11T11:58:27;4.70;;;2.22;;
54575;SDS011;40472;53.486;14.542;2023-03-11T12:09:04;5.53;;;2.65;;
54575;SDS011;40472;53.486;14.542;2023-03-11T12:11:53;1.95;;;1.48;;
54575;SDS011;40472;53.486;14.542;2023-03-11T12:14:48;5.15;;;1.67;;
54575;SDS011;40472;53.486;14.542;2023-03-11T12:17:34;3.80;;;2.00;;
54575;SDS011;40472;53.486;14.542;2023-03-11T12:20:07;3.47;;;1.92;;
54575;SDS011;40472;53.486;14.542;2023-03-11T12:28:02;4.53;;;1.92;;
54575;SDS011;40472;53.486;14.542;2023-03-11T12:30:37;4.95;;;2.38;;
54575;SDS011;40472;53.486;14.542;2023-03-11T12:33:23;3.88;;;1.95;;
54575;SDS011;40472;53.486;14.542;2023-03-11T12:35:58;4.38;;;2.35;;
54575;SDS011;40472;53.486;14.542;2023-03-11T12:46:08;2.85;;;1.98;;
54575;SDS011;40472;53.486;14.542;2023-03-11T12:51:15;2.33;;;1.63;;
54575;SDS011;40472;53.486;14.542;2023-03-11T12:53:58;4.32;;;2.03;;
54575;SDS011;40472;53.486;14.542;2023-03-11T12:56:44;1.92;;;1.33;;
54575;SDS011;40472;53.486;14.542;2023-03-11T13:10:51;4.57;;;1.95;;
54575;SDS011;40472;53.486;14.542;2023-03-11T13:13:21;2.33;;;1.85;;
54575;SDS011;40472;53.486;14.542;2023-03-11T13:18:37;2.25;;;1.80;;
54575;SDS011;40472;53.486;14.542;2023-03-11T13:23:52;4.55;;;2.15;;
54575;SDS011;40472;53.486;14.542;2023-03-11T13:32:05;3.70;;;2.20;;
54575;SDS011;40472;53.486;14.542;2023-03-11T13:42:49;4.70;;;1.70;;
54575;SDS011;40472;53.486;14.542;2023-03-11T13:45:26;5.20;;;2.60;;
54575;SDS011;40472;53.486;14.542;2023-03-11T13:47:59;4.93;;;2.65;;
54575;SDS011;40472;53.486;14.542;2023-03-11T13:50:52;1.75;;;1.27;;
54575;SDS011;40472;53.486;14.542;2023-03-11T13:53:24;3.33;;;1.90;;
54575;SDS011;40472;53.486;14.542;2023-03-11T13:55:56;2.10;;;1.50;;
54575;SDS011;40472;53.486;14.542;2023-03-11T13:58:23;3.40;;;2.03;;
54575;SDS011;40472;53.486;14.542;2023-03-11T14:00:58;2.13;;;1.63;;
54575;SDS011;40472;53.486;14.542;2023-03-11T14:03:27;3.25;;;2.28;;
54575;SDS011;40472;53.486;14.542;2023-03-11T14:06:00;7.47;;;2.78;;
54575;SDS011;40472;53.486;14.542;2023-03-11T14:10:59;4.35;;;2.58;;
54575;SDS011;40472;53.486;14.542;2023-03-11T14:13:30;6.10;;;2.58;;
54575;SDS011;40472;53.486;14.542;2023-03-11T14:16:18;4.28;;;3.33;;
54575;SDS011;40472;53.486;14.542;2023-03-11T14:19:15;4.95;;;2.58;;
54575;SDS011;40472;53.486;14.542;2023-03-11T14:21:44;6.03;;;2.10;;
54575;SDS011;40472;53.486;14.542;2023-03-11T14:24:19;3.97;;;2.38;;
54575;SDS011;40472;53.486;14.542;2023-03-11T14:26:49;7.40;;;3.55;;
54575;SDS011;40472;53.486;14.542;2023-03-11T14:29:20;7.47;;;2.97;;
54575;SDS011;40472;53.486;14.542;2023-03-11T14:31:56;5.30;;;2.20;;
54575;SDS011;40472;53.486;14.542;2023-03-11T14:34:23;4.72;;;2.65;;
54575;SDS011;40472;53.486;14.542;2023-03-11T14:36:55;7.82;;;3.03;;
54575;SDS011;40472;53.486;14.542;2023-03-11T14:39:30;5.85;;;2.83;;
54575;SDS011;40472;53.486;14.542;2023-03-11T14:44:57;5.85;;;2.47;;
54575;SDS011;40472;53.486;14.542;2023-03-11T14:47:42;3.08;;;2.13;;
54575;SDS011;40472;53.486;14.542;2023-03-11T14:50:21;4.53;;;2.72;;
54575;SDS011;40472;53.486;14.542;2023-03-11T15:00:37;6.35;;;2.33;;
54575;SDS011;40472;53.486;14.542;2023-03-11T15:06:00;5.72;;;2.50;;
54575;SDS011;40472;53.486;14.542;2023-03-11T15:08:29;2.50;;;1.52;;
54575;SDS011;40472;53.486;14.542;2023-03-11T15:13:35;2.55;;;1.77;;
54575;SDS011;40472;53.486;14.542;2023-03-11T15:16:03;2.17;;;1.70;;
54575;SDS011;40472;53.486;14.542;2023-03-11T15:18:35;2.67;;;1.75;;
54575;SDS011;40472;53.486;14.542;2023-03-11T15:21:15;3.15;;;1.98;;
54575;SDS011;40472;53.486;14.542;2023-03-11T15:23:46;1.55;;;1.00;;
54575;SDS011;40472;53.486;14.542;2023-03-11T15:26:23;3.15;;;1.20;;
54575;SDS011;40472;53.486;14.542;2023-03-11T15:28:59;2.28;;;1.55;;
54575;SDS011;40472;53.486;14.542;2023-03-11T15:31:37;2.45;;;1.27;;
54575;SDS011;40472;53.486;14.542;2023-03-11T15:34:10;1.92;;;1.10;;
54575;SDS011;40472;53.486;14.542;2023-03-11T15:42:02;3.67;;;1.65;;
54575;SDS011;40472;53.486;14.542;2023-03-11T15:47:07;3.38;;;1.55;;
54575;SDS011;40472;53.486;14.542;2023-03-11T15:49:38;3.95;;;1.67;;
54575;SDS011;40472;53.486;14.542;2023-03-11T15:52:04;2.42;;;1.63;;
54575;SDS011;40472;53.486;14.542;2023-03-11T15:54:30;4.47;;;1.48;;
54575;SDS011;40472;53.486;14.542;2023-03-11T15:56:56;4.88;;;1.30;;
54575;SDS011;40472;53.486;14.542;2023-03-11T15:59:25;2.15;;;1.27;;
54575;SDS011;40472;53.486;14.542;2023-03-11T16:01:52;4.28;;;2.13;;
54575;SDS011;40472;53.486;14.542;2023-03-11T16:04:18;3.97;;;2.03;;
54575;SDS011;40472;53.486;14.542;2023-03-11T16:06:45;4.13;;;1.10;;
54575;SDS011;40472;53.486;14.542;2023-03-11T16:09:12;2.17;;;1.02;;
54575;SDS011;40472;53.486;14.542;2023-03-11T16:11:41;3.95;;;1.33;;
54575;SDS011;40472;53.486;14.542;2023-03-11T16:14:16;2.63;;;1.58;;
54575;SDS011;40472;53.486;14.542;2023-03-11T16:16:44;3.30;;;1.63;;
54575;SDS011;40472;53.486;14.542;2023-03-11T16:19:11;4.38;;;1.50;;
54575;SDS011;40472;53.486;14.542;2023-03-11T16:21:45;3.17;;;1.80;;
54575;SDS011;40472;53.486;14.542;2023-03-11T16:24:18;1.38;;;0.63;;
54575;SDS011;40472;53.486;14.542;2023-03-11T16:26:47;2.28;;;1.52;;
54575;SDS011;40472;53.486;14.542;2023-03-11T16:29:16;2.53;;;1.63;;
54575;SDS011;40472;53.486;14.542;2023-03-11T16:31:43;3.08;;;1.33;;
54575;SDS011;40472;53.486;14.542;2023-03-11T16:34:08;2.47;;;1.55;;
54575;SDS011;40472;53.486;14.542;2023-03-11T16:36:34;3.53;;;1.98;;
54575;SDS011;40472;53.486;14.542;2023-03-11T16:39:00;3.65;;;1.83;;
54575;SDS011;40472;53.486;14.542;2023-03-11T16:41:26;1.77;;;1.35;;
54575;SDS011;40472;53.486;14.542;2023-03-11T16:43:52;4.00;;;1.58;;
54575;SDS011;40472;53.486;14.542;2023-03-11T16:46:18;3.67;;;1.40;;
54575;SDS011;40472;53.486;14.542;2023-03-11T16:48:44;3.50;;;1.92;;
54575;SDS011;40472;53.486;14.542;2023-03-11T16:51:10;1.98;;;1.60;;
54575;SDS011;40472;53.486;14.542;2023-03-11T16:53:39;1.55;;;1.10;;